Time;durP1;ratioP1;P1;durP2;ratioP2;P2;SDS_P1;SDS_P2;PMS_P1;PMS_P2;Temp;Humidity;BMP_temperature;BMP_pressure;BME280_temperature;BME280_humidity;BME280_pressure;Samples;Min_cycle;Max_cycle;Signal;HPM_P1;HPM_P2
2022/04/29 00:01:06;;;;;;;16.93;9.97;;;10.60;99.90;;;;;;4142266;28;20210;-81
2022/04/29 00:03:09;;;;;;;20.37;10.63;;;10.50;99.90;;;;;;4140528;28;20213;-82
2022/04/29 00:05:11;;;;;;;21.17;11.13;;;10.50;99.90;;;;;;4144183;28;20590;-81
2022/04/29 00:07:15;;;;;;;17.57;10.60;;;10.40;99.90;;;;;;4168877;23;20270;-80
2022/04/29 00:09:17;;;;;;;20.77;10.87;;;10.40;99.90;;;;;;4157389;28;20212;-80
2022/04/29 00:11:21;;;;;;;18.80;10.60;;;10.30;99.90;;;;;;4154113;28;20299;-80
2022/04/29 00:13:22;;;;;;;19.70;10.77;;;10.30;99.90;;;;;;4153807;28;20215;-80
2022/04/29 00:15:24;;;;;;;18.80;10.23;;;10.20;99.90;;;;;;4154388;28;20268;-80
2022/04/29 00:17:26;;;;;;;16.67;9.67;;;10.20;99.90;;;;;;4160246;28;20253;-80
2022/04/29 00:19:28;;;;;;;19.67;9.90;;;10.30;99.90;;;;;;4155501;28;20215;-80
2022/04/29 00:21:30;;;;;;;17.50;10.40;;;10.10;99.90;;;;;;4160815;28;20310;-80
2022/04/29 00:23:31;;;;;;;19.43;10.10;;;10.10;99.90;;;;;;4153532;28;20208;-80
2022/04/29 00:25:33;;;;;;;18.60;10.37;;;10.10;99.90;;;;;;4155943;28;20220;-80
2022/04/29 00:27:38;;;;;;;16.17;10.00;;;10.10;99.90;;;;;;4151691;28;20256;-80
2022/04/29 00:29:40;;;;;;;18.13;10.03;;;10.00;99.90;;;;;;4151726;28;20242;-79
2022/04/29 00:31:41;;;;;;;18.10;10.03;;;10.00;99.90;;;;;;4152210;28;20223;-80
2022/04/29 00:33:43;;;;;;;17.33;9.80;;;9.90;99.90;;;;;;4159007;28;20215;-79
2022/04/29 00:35:45;;;;;;;21.60;10.73;;;9.90;99.90;;;;;;4158308;28;20318;-80
2022/04/29 00:37:49;;;;;;;18.50;9.77;;;9.90;99.90;;;;;;4161102;28;20626;-79
2022/04/29 00:39:51;;;;;;;17.43;9.83;;;9.80;99.90;;;;;;4160299;28;20214;-79
2022/04/29 00:41:52;;;;;;;16.60;9.53;;;9.80;99.90;;;;;;4156484;28;21457;-79
2022/04/29 00:44:06;;;;;;;18.40;10.10;;;9.80;99.90;;;;;;4155938;28;20223;-79
2022/04/29 00:46:08;;;;;;;23.37;10.57;;;9.70;99.90;;;;;;4158782;28;20285;-79
2022/04/29 00:48:10;;;;;;;17.17;9.93;;;9.80;99.90;;;;;;4161003;28;20633;-79
2022/04/29 00:50:15;;;;;;;17.53;9.90;;;9.70;99.90;;;;;;4159261;28;20231;-79
2022/04/29 00:52:20;;;;;;;19.23;9.83;;;9.70;99.90;;;;;;4155284;28;20216;-80
2022/04/29 00:54:27;;;;;;;15.90;9.27;;;9.70;99.90;;;;;;4156739;28;20222;-79
2022/04/29 00:56:31;;;;;;;22.40;9.73;;;9.60;99.90;;;;;;4160967;28;20240;-80
2022/04/29 00:58:37;;;;;;;19.53;10.13;;;9.60;99.90;;;;;;4157050;28;20222;-79
2022/04/29 01:00:41;;;;;;;16.80;9.67;;;9.60;99.90;;;;;;4154355;28;20204;-80
2022/04/29 01:02:44;;;;;;;21.33;10.53;;;9.60;99.90;;;;;;4153496;28;20227;-79
2022/04/29 01:04:55;;;;;;;23.87;10.37;;;9.50;99.90;;;;;;4152496;28;20588;-80
2022/04/29 01:06:57;;;;;;;16.87;9.67;;;9.50;99.90;;;;;;4156835;28;20673;-79
2022/04/29 01:08:59;;;;;;;18.50;10.07;;;9.50;99.90;;;;;;4158148;28;20231;-80
2022/04/29 01:11:00;;;;;;;19.33;10.40;;;9.40;99.90;;;;;;4161921;28;20220;-79
2022/04/29 01:13:04;;;;;;;19.63;9.90;;;9.40;99.90;;;;;;4152112;28;20269;-80
2022/04/29 01:15:08;;;;;;;21.23;10.30;;;9.30;99.90;;;;;;4153469;28;20639;-80
2022/04/29 01:17:12;;;;;;;18.73;10.27;;;9.30;99.90;;;;;;4154238;28;20231;-79
2022/04/29 01:19:14;;;;;;;23.00;10.03;;;9.30;99.90;;;;;;4156709;28;20216;-80
2022/04/29 01:21:16;;;;;;;17.53;9.40;;;9.30;99.90;;;;;;4157019;28;20223;-80
2022/04/29 01:23:19;;;;;;;16.27;10.03;;;9.20;99.90;;;;;;4154966;28;20529;-80
2022/04/29 01:25:21;;;;;;;18.20;9.90;;;9.20;99.90;;;;;;4157073;28;20609;-80
2022/04/29 01:27:22;;;;;;;21.27;10.73;;;9.20;99.90;;;;;;4157527;28;20467;-79
2022/04/29 01:29:25;;;;;;;19.00;10.03;;;9.20;99.90;;;;;;4152619;28;20517;-80
2022/04/29 01:31:29;;;;;;;20.83;10.40;;;9.20;99.90;;;;;;4159194;28;20473;-79
2022/04/29 01:33:33;;;;;;;15.30;10.07;;;9.20;99.90;;;;;;4157193;28;20462;-80
2022/04/29 01:35:34;;;;;;;22.43;11.10;;;9.00;99.90;;;;;;4157268;28;20548;-80
2022/04/29 01:37:37;;;;;;;17.40;9.23;;;9.00;99.90;;;;;;4157209;28;20457;-80
2022/04/29 01:39:40;;;;;;;19.10;9.47;;;9.00;99.90;;;;;;4156049;28;20635;-79
2022/04/29 01:41:42;;;;;;;18.60;10.17;;;8.90;99.90;;;;;;4162205;28;20454;-79
2022/04/29 01:43:44;;;;;;;20.27;10.70;;;8.90;99.90;;;;;;4157662;28;21056;-80
2022/04/29 01:45:46;;;;;;;18.87;10.67;;;8.90;99.90;;;;;;4153639;28;20458;-80
2022/04/29 01:47:48;;;;;;;19.80;9.80;;;9.40;99.90;;;;;;4149889;28;20457;-79
2022/04/29 01:49:50;;;;;;;17.80;10.23;;;8.80;99.90;;;;;;4161057;28;20837;-80
2022/04/29 01:51:54;;;;;;;19.70;10.47;;;8.80;99.90;;;;;;4149866;28;20455;-80
2022/04/29 01:53:55;;;;;;;21.43;10.67;;;8.80;99.90;;;;;;4159951;28;20676;-80
2022/04/29 01:55:58;;;;;;;18.60;10.23;;;8.80;99.90;;;;;;4162588;28;20494;-79
2022/04/29 01:58:00;;;;;;;20.73;9.97;;;8.80;99.90;;;;;;4156968;28;20471;-79
2022/04/29 02:00:02;;;;;;;19.83;11.20;;;8.70;99.90;;;;;;4156338;28;20500;-80
2022/04/29 02:02:06;;;;;;;20.07;10.33;;;8.70;99.90;;;;;;4157274;28;20203;-79
2022/04/29 02:04:09;;;;;;;20.80;10.83;;;8.70;99.90;;;;;;4158734;28;20462;-80
2022/04/29 02:06:10;;;;;;;20.20;10.73;;;8.60;99.90;;;;;;4153726;28;20506;-79
2022/04/29 02:08:12;;;;;;;22.07;10.50;;;8.60;99.90;;;;;;4153862;28;20523;-80
2022/04/29 02:10:14;;;;;;;18.50;10.23;;;8.60;99.90;;;;;;4162738;28;20454;-79
2022/04/29 02:12:18;;;;;;;20.43;10.23;;;8.60;99.90;;;;;;4151853;28;20542;-80
2022/04/29 02:14:20;;;;;;;20.50;10.13;;;8.50;99.90;;;;;;4150674;28;20550;-79
2022/04/29 02:16:23;;;;;;;17.07;9.43;;;8.50;99.90;;;;;;4154236;28;20569;-79
2022/04/29 02:18:24;;;;;;;17.67;9.60;;;8.50;99.90;;;;;;4155289;28;20462;-80
2022/04/29 02:20:26;;;;;;;17.70;9.37;;;8.40;99.90;;;;;;4158247;28;20451;-80
2022/04/29 02:22:28;;;;;;;15.40;9.93;;;8.40;99.90;;;;;;4158794;28;20454;-79
2022/04/29 02:24:31;;;;;;;18.20;9.50;;;8.40;99.90;;;;;;4160169;28;20896;-79
2022/04/29 02:26:33;;;;;;;21.57;10.33;;;8.50;99.90;;;;;;4161449;28;21301;-79
2022/04/29 02:28:38;;;;;;;18.10;10.10;;;8.30;99.90;;;;;;4157483;28;20599;-80
2022/04/29 02:30:40;;;;;;;21.70;10.23;;;8.30;99.90;;;;;;4156381;28;20994;-79
2022/04/29 02:32:42;;;;;;;16.60;9.63;;;8.30;99.90;;;;;;4159720;28;20522;-79
2022/04/29 02:34:44;;;;;;;16.23;9.27;;;8.20;99.90;;;;;;4164348;28;20461;-79
2022/04/29 02:36:47;;;;;;;19.20;10.10;;;8.20;99.90;;;;;;4158128;28;20497;-79
2022/04/29 02:38:48;;;;;;;19.90;10.97;;;8.20;99.90;;;;;;4163370;28;20548;-79
2022/04/29 02:40:51;;;;;;;15.47;9.40;;;8.20;99.90;;;;;;4155889;28;20500;-79
2022/04/29 02:42:53;;;;;;;17.37;9.60;;;8.20;99.90;;;;;;4153835;28;20498;-80
2022/04/29 02:44:56;;;;;;;20.50;9.97;;;8.10;99.90;;;;;;4153252;28;20478;-79
2022/04/29 02:47:10;;;;;;;19.03;10.53;;;8.10;99.90;;;;;;4156236;28;20539;-79
2022/04/29 02:49:12;;;;;;;16.67;10.23;;;8.00;99.90;;;;;;4163998;28;20469;-79
2022/04/29 02:51:15;;;;;;;20.13;10.97;;;8.10;99.90;;;;;;4162855;28;20452;-79
2022/04/29 02:53:17;;;;;;;18.30;10.23;;;8.00;99.90;;;;;;4163365;28;20461;-80
2022/04/29 02:55:18;;;;;;;20.10;11.40;;;7.90;99.90;;;;;;4163225;28;20453;-79
2022/04/29 02:57:20;;;;;;;26.27;12.23;;;7.90;99.90;;;;;;4161947;28;20497;-79
2022/04/29 02:59:22;;;;;;;21.10;11.70;;;7.80;99.90;;;;;;4160189;28;20477;-79
2022/04/29 03:01:25;;;;;;;21.10;11.80;;;7.80;99.90;;;;;;4160382;28;20466;-79
2022/04/29 03:03:28;;;;;;;19.90;11.30;;;7.80;99.90;;;;;;4154332;28;20808;-79
2022/04/29 03:05:31;;;;;;;20.40;11.23;;;7.70;99.90;;;;;;4161790;28;20945;-79
2022/04/29 03:07:33;;;;;;;19.37;11.43;;;7.70;99.90;;;;;;4154855;28;20486;-79
2022/04/29 03:09:34;;;;;;;20.63;11.43;;;7.70;99.90;;;;;;4157039;28;20485;-79
2022/04/29 03:11:36;;;;;;;21.63;11.80;;;7.70;99.90;;;;;;4162736;28;20458;-79
2022/04/29 03:13:38;;;;;;;24.30;11.27;;;7.60;99.90;;;;;;4157532;28;20467;-79
2022/04/29 03:15:40;;;;;;;20.90;11.23;;;7.60;99.90;;;;;;4164022;28;20463;-79
2022/04/29 03:20:04;;;;;;;22.60;11.70;;;7.50;99.90;;;;;;4162757;28;20472;-79
2022/04/29 03:22:06;;;;;;;19.23;11.03;;;7.50;99.90;;;;;;4162905;28;20472;-80
2022/04/29 03:24:08;;;;;;;23.60;11.33;;;7.50;99.90;;;;;;4161724;28;20457;-79
2022/04/29 03:26:09;;;;;;;19.50;11.87;;;7.40;99.90;;;;;;4159510;28;20508;-79
2022/04/29 03:28:11;;;;;;;22.67;12.00;;;7.40;99.90;;;;;;4160232;28;20492;-79
2022/04/29 03:30:14;;;;;;;16.50;10.47;;;7.40;99.90;;;;;;4161264;28;20492;-79
2022/04/29 03:32:16;;;;;;;19.07;11.10;;;7.40;99.90;;;;;;4156357;28;20484;-79
2022/04/29 03:34:19;;;;;;;19.97;11.40;;;7.40;99.90;;;;;;4156529;28;20453;-79
2022/04/29 03:36:20;;;;;;;21.37;11.23;;;7.30;99.90;;;;;;4158136;28;20503;-79
2022/04/29 03:38:22;;;;;;;19.07;10.87;;;7.30;99.90;;;;;;4157658;28;20517;-79
2022/04/29 03:40:25;;;;;;;20.10;11.20;;;7.30;99.90;;;;;;4160198;28;20500;-79
2022/04/29 03:42:27;;;;;;;19.53;10.17;;;7.30;99.90;;;;;;4164775;28;21030;-79
2022/04/29 03:44:29;;;;;;;20.97;10.90;;;7.30;99.90;;;;;;4163277;28;20521;-79
2022/04/29 03:46:33;;;;;;;17.20;10.20;;;7.30;99.90;;;;;;4163035;28;20478;-79
2022/04/29 03:50:51;;;;;;;23.50;11.00;;;7.20;99.90;;;;;;4158488;28;20473;-79
2022/04/29 03:52:56;;;;;;;19.20;11.07;;;7.20;99.90;;;;;;4165180;28;20485;-79
2022/04/29 03:54:58;;;;;;;21.20;10.47;;;7.20;99.90;;;;;;4165697;28;20474;-79
2022/04/29 03:57:00;;;;;;;21.97;9.97;;;7.20;99.90;;;;;;4165341;28;20496;-79
2022/04/29 03:59:02;;;;;;;25.10;10.33;;;7.20;99.90;;;;;;4152380;28;20456;-79
2022/04/29 04:01:04;;;;;;;18.70;9.77;;;7.20;99.90;;;;;;4151860;28;20845;-80
2022/04/29 04:03:05;;;;;;;17.50;9.33;;;7.20;99.90;;;;;;4159294;28;20461;-79
2022/04/29 04:05:08;;;;;;;20.10;9.37;;;7.20;99.90;;;;;;4153924;28;20526;-80
2022/04/29 04:07:10;;;;;;;18.13;9.33;;;7.10;99.90;;;;;;4156151;28;20490;-80
2022/04/29 04:09:12;;;;;;;18.03;9.33;;;7.10;99.90;;;;;;4154312;28;20556;-79
2022/04/29 04:11:14;;;;;;;19.63;10.20;;;7.10;99.90;;;;;;4154369;28;20495;-80
2022/04/29 04:13:16;;;;;;;17.50;9.97;;;7.10;99.90;;;;;;4158219;28;20958;-79
2022/04/29 04:15:20;;;;;;;18.43;9.93;;;7.10;99.90;;;;;;4159190;28;20483;-80
2022/04/29 04:17:21;;;;;;;21.40;9.53;;;7.10;99.90;;;;;;4160230;28;20501;-79
2022/04/29 04:19:23;;;;;;;18.90;9.93;;;7.10;99.90;;;;;;4161608;28;20462;-79
2022/04/29 04:21:25;;;;;;;21.90;10.57;;;7.10;99.90;;;;;;4156939;28;20457;-80
2022/04/29 04:23:28;;;;;;;20.43;9.97;;;7.10;99.90;;;;;;4155318;28;20469;-79
2022/04/29 04:25:30;;;;;;;20.83;10.43;;;7.10;99.90;;;;;;4155768;28;20604;-79
2022/04/29 04:27:32;;;;;;;18.13;9.70;;;7.10;99.90;;;;;;4143877;28;20477;-79
2022/04/29 04:29:34;;;;;;;19.53;10.77;;;7.10;99.90;;;;;;4152664;28;20468;-79
2022/04/29 04:31:36;;;;;;;21.10;10.70;;;7.10;99.90;;;;;;4152793;28;20461;-81
2022/04/29 04:33:37;;;;;;;20.37;10.23;;;7.10;99.90;;;;;;4150620;28;20973;-79
2022/04/29 04:35:39;;;;;;;17.27;9.97;;;7.10;99.90;;;;;;4157921;28;20527;-79
2022/04/29 04:37:41;;;;;;;23.40;11.10;;;7.10;99.90;;;;;;4152526;28;20487;-80
2022/04/29 04:39:44;;;;;;;20.83;10.73;;;7.10;99.90;;;;;;4142971;28;20477;-80
2022/04/29 04:41:46;;;;;;;21.17;11.27;;;7.20;99.90;;;;;;4152878;28;20460;-79
2022/04/29 04:43:49;;;;;;;17.27;10.30;;;7.20;99.90;;;;;;4155660;28;20460;-79
2022/04/29 04:45:51;;;;;;;23.70;10.33;;;7.20;99.90;;;;;;4146301;28;20490;-79
2022/04/29 04:47:52;;;;;;;21.17;10.83;;;7.20;99.90;;;;;;4152840;28;20522;-79
2022/04/29 04:49:55;;;;;;;17.47;10.30;;;7.20;99.90;;;;;;4150972;28;20458;-79
2022/04/29 04:51:57;;;;;;;19.03;10.70;;;7.20;99.90;;;;;;4144625;28;20470;-81
2022/04/29 04:53:59;;;;;;;21.03;11.77;;;7.20;99.90;;;;;;4148664;28;20764;-79
2022/04/29 04:56:03;;;;;;;24.20;11.47;;;7.20;99.90;;;;;;4149641;28;20482;-79
2022/04/29 04:58:06;;;;;;;20.57;11.07;;;7.20;99.90;;;;;;4144871;28;20492;-79
2022/04/29 05:00:09;;;;;;;21.47;11.20;;;7.20;99.90;;;;;;4155496;28;20481;-81
2022/04/29 05:02:10;;;;;;;23.17;11.53;;;7.20;99.90;;;;;;4152386;28;20491;-79
2022/04/29 05:04:12;;;;;;;20.77;11.80;;;7.20;99.90;;;;;;4148155;28;20465;-80
2022/04/29 05:06:14;;;;;;;21.33;11.33;;;7.20;99.90;;;;;;4152485;28;20485;-80
2022/04/29 05:08:16;;;;;;;20.87;11.50;;;7.30;99.90;;;;;;4153496;28;20585;-80
2022/04/29 05:10:18;;;;;;;21.40;11.43;;;7.30;99.90;;;;;;4153108;28;20721;-80
2022/04/29 05:12:21;;;;;;;19.43;10.47;;;7.40;99.90;;;;;;4149829;28;20672;-80
2022/04/29 05:14:23;;;;;;;19.57;11.30;;;7.70;99.90;;;;;;4152981;28;20522;-80
2022/04/29 05:16:24;;;;;;;21.50;10.73;;;7.50;99.90;;;;;;4146164;28;20493;-81
2022/04/29 05:18:26;;;;;;;24.57;11.20;;;7.60;99.90;;;;;;4142560;28;20967;-80
2022/04/29 05:20:28;;;;;;;18.13;10.87;;;7.60;99.90;;;;;;4146037;28;20489;-80
2022/04/29 05:22:30;;;;;;;19.77;10.73;;;7.70;99.90;;;;;;4146705;28;20870;-79
2022/04/29 05:24:32;;;;;;;21.97;10.77;;;7.80;99.90;;;;;;4149105;28;20456;-80
2022/04/29 05:26:34;;;;;;;22.80;11.10;;;7.90;99.90;;;;;;4148920;28;20497;-80
2022/04/29 05:28:37;;;;;;;20.60;10.73;;;7.90;99.90;;;;;;4152907;28;20512;-83
2022/04/29 05:30:39;;;;;;;20.67;10.57;;;8.00;99.90;;;;;;4148822;28;20466;-82
2022/04/29 05:32:41;;;;;;;23.87;11.60;;;8.00;99.90;;;;;;4143042;28;20853;-80
2022/04/29 05:34:45;;;;;;;21.70;11.93;;;8.00;99.90;;;;;;4141751;28;20477;-79
2022/04/29 05:36:47;;;;;;;19.90;11.17;;;8.20;99.90;;;;;;4144555;28;20480;-79
2022/04/29 05:43:28;;;;;;;21.13;11.03;;;8.50;99.90;;;;;;4141477;28;20896;-79
2022/04/29 05:45:31;;;;;;;22.57;11.30;;;8.50;99.90;;;;;;4144966;28;20463;-80
2022/04/29 05:47:33;;;;;;;21.30;11.23;;;8.60;99.90;;;;;;4142424;28;20466;-79
2022/04/29 05:49:35;;;;;;;24.93;11.57;;;8.70;99.90;;;;;;4139020;28;20524;-79
2022/04/29 05:51:38;;;;;;;24.50;11.30;;;8.70;99.90;;;;;;4146473;28;20553;-81
2022/04/29 05:53:39;;;;;;;19.37;10.60;;;8.80;99.90;;;;;;4147452;28;20992;-81
2022/04/29 05:55:42;;;;;;;20.87;10.77;;;8.70;99.90;;;;;;4149115;28;20935;-80
2022/04/29 05:57:43;;;;;;;24.43;11.00;;;8.70;99.90;;;;;;4148825;28;20551;-81
2022/04/29 05:59:45;;;;;;;19.87;11.23;;;8.70;99.90;;;;;;4150295;28;20983;-80
2022/04/29 06:01:49;;;;;;;19.93;10.73;;;8.70;99.90;;;;;;4150548;28;20465;-81
2022/04/29 06:03:50;;;;;;;22.20;11.13;;;8.80;99.90;;;;;;4150531;28;20470;-81
2022/04/29 06:05:52;;;;;;;21.50;11.67;;;8.70;99.90;;;;;;4152121;28;20490;-80
2022/04/29 06:07:54;;;;;;;19.67;10.70;;;8.80;99.90;;;;;;4176191;22;20508;-81
2022/04/29 06:09:56;;;;;;;19.50;10.77;;;8.70;99.90;;;;;;4164007;28;20493;-81
2022/04/29 06:11:58;;;;;;;24.37;11.33;;;8.70;99.90;;;;;;4163769;28;20462;-81
2022/04/29 06:13:59;;;;;;;21.37;10.60;;;8.80;99.90;;;;;;4159575;28;20519;-81
2022/04/29 06:16:01;;;;;;;22.13;10.87;;;8.80;99.90;;;;;;4161830;28;20466;-81
2022/04/29 06:18:07;;;;;;;21.47;11.13;;;8.80;99.90;;;;;;4163320;28;20552;-81
2022/04/29 06:20:10;;;;;;;21.13;11.07;;;8.80;99.90;;;;;;4162171;28;20463;-81
2022/04/29 06:22:12;;;;;;;20.33;11.03;;;8.90;99.90;;;;;;4163251;28;20458;-81
2022/04/29 06:24:14;;;;;;;25.80;11.13;;;8.90;99.90;;;;;;4162460;28;20473;-81
2022/04/29 06:26:16;;;;;;;20.57;10.83;;;9.00;99.90;;;;;;4160760;28;20531;-81
2022/04/29 06:28:17;;;;;;;18.20;11.07;;;9.00;99.90;;;;;;4165048;28;20464;-81
2022/04/29 06:30:19;;;;;;;20.10;10.10;;;9.00;99.90;;;;;;4163435;28;20462;-81
2022/04/29 06:32:21;;;;;;;19.00;10.37;;;9.10;99.90;;;;;;4167165;28;20219;-81
2022/04/29 06:34:24;;;;;;;16.07;9.77;;;9.20;99.90;;;;;;4166275;28;20230;-82
2022/04/29 06:36:26;;;;;;;18.13;9.90;;;9.50;99.90;;;;;;4156491;28;20478;-82
2022/04/29 06:38:28;;;;;;;21.97;10.17;;;9.20;99.90;;;;;;4160365;28;20506;-84
2022/04/29 06:40:30;;;;;;;23.47;10.47;;;9.30;99.90;;;;;;4162270;28;20214;-81
2022/04/29 06:42:32;;;;;;;17.30;10.13;;;9.40;99.90;;;;;;4155213;28;20466;-82
2022/04/29 06:44:34;;;;;;;19.10;9.67;;;9.50;99.90;;;;;;4166369;28;20216;-82
2022/04/29 06:46:35;;;;;;;19.43;10.27;;;9.70;99.90;;;;;;4167815;28;20258;-82
2022/04/29 06:48:37;;;;;;;19.17;10.10;;;9.80;99.90;;;;;;4165523;28;20582;-82
2022/04/29 06:50:41;;;;;;;20.23;9.60;;;9.90;99.90;;;;;;4164344;28;20278;-82
2022/04/29 06:52:42;;;;;;;18.13;9.07;;;10.10;99.90;;;;;;4160528;28;20812;-82
2022/04/29 06:54:44;;;;;;;16.97;9.20;;;10.10;99.90;;;;;;4164276;28;20686;-82
2022/04/29 06:56:46;;;;;;;22.07;10.07;;;10.30;99.90;;;;;;4155579;28;20691;-83
2022/04/29 06:58:49;;;;;;;18.20;9.80;;;10.40;99.90;;;;;;4158394;28;20288;-83
2022/04/29 07:00:50;;;;;;;28.17;9.83;;;10.50;99.90;;;;;;4159063;28;20267;-83
2022/04/29 07:02:52;;;;;;;19.63;9.63;;;10.70;99.90;;;;;;4156293;28;20537;-83
2022/04/29 07:04:54;;;;;;;19.93;9.70;;;10.80;99.90;;;;;;4154963;28;20215;-82
2022/04/29 07:06:57;;;;;;;21.93;8.57;;;10.90;99.90;;;;;;4154692;28;20240;-84
2022/04/29 07:09:02;;;;;;;16.47;8.83;;;11.10;99.90;;;;;;4155562;28;20208;-83
2022/04/29 07:11:03;;;;;;;20.50;8.70;;;11.20;99.90;;;;;;4161084;28;20208;-83
2022/04/29 07:13:05;;;;;;;19.10;9.63;;;11.40;99.90;;;;;;4159296;28;20496;-83
2022/04/29 07:15:09;;;;;;;20.73;10.03;;;11.50;99.90;;;;;;4157426;28;20259;-83
2022/04/29 07:17:11;;;;;;;22.27;10.37;;;11.60;99.90;;;;;;4155192;28;20273;-83
2022/04/29 07:19:12;;;;;;;18.50;9.77;;;11.90;99.90;;;;;;4159892;28;20278;-83
2022/04/29 07:21:14;;;;;;;17.77;9.83;;;11.90;99.90;;;;;;4155035;28;20213;-83
2022/04/29 07:23:17;;;;;;;15.97;9.33;;;12.00;99.90;;;;;;4155555;28;20588;-83
2022/04/29 07:25:20;;;;;;;16.50;9.37;;;12.10;99.90;;;;;;4157456;28;20218;-83
2022/04/29 07:27:22;;;;;;;23.60;9.87;;;12.20;99.90;;;;;;4155833;28;20533;-84
2022/04/29 07:29:23;;;;;;;19.33;9.90;;;12.50;99.90;;;;;;4157179;28;20747;-84
2022/04/29 07:31:25;;;;;;;16.13;8.93;;;12.50;99.90;;;;;;4158000;28;20237;-84
2022/04/29 07:33:27;;;;;;;20.97;9.83;;;12.60;99.90;;;;;;4154887;28;20215;-83
2022/04/29 07:42:29;;;;;;;16.37;8.33;;;12.90;99.90;;;;;;4152426;28;20265;-83
2022/04/29 07:44:31;;;;;;;17.10;8.40;;;13.00;99.90;;;;;;4159852;28;20215;-84
2022/04/29 07:46:33;;;;;;;15.43;8.50;;;13.10;99.90;;;;;;4156635;28;20252;-83
2022/04/29 07:48:35;;;;;;;13.30;7.97;;;13.20;99.90;;;;;;4161140;28;20207;-83
2022/04/29 07:50:37;;;;;;;13.47;7.67;;;13.20;99.20;;;;;;4163591;28;20643;-83
2022/04/29 07:52:38;;;;;;;13.50;7.47;;;13.30;99.00;;;;;;4155690;28;20426;-83
2022/04/29 07:54:43;;;;;;;15.17;7.57;;;13.30;97.30;;;;;;4161130;28;20257;-83
2022/04/29 07:56:47;;;;;;;14.23;7.33;;;13.30;98.40;;;;;;4159615;28;20257;-83
2022/04/29 07:58:48;;;;;;;14.40;7.10;;;13.40;99.60;;;;;;4155560;28;20245;-83
2022/04/29 08:00:50;;;;;;;14.37;7.17;;;13.40;98.80;;;;;;4160087;28;20225;-83
2022/04/29 08:02:52;;;;;;;20.70;6.93;;;13.40;99.90;;;;;;4158965;28;20217;-84
2022/04/29 08:04:54;;;;;;;11.63;6.90;;;13.50;99.90;;;;;;4156712;28;20586;-83
2022/04/29 08:06:57;;;;;;;14.47;7.37;;;13.40;98.00;;;;;;4161876;28;20252;-83
2022/04/29 08:08:59;;;;;;;16.00;7.30;;;13.40;99.90;;;;;;4160426;28;20203;-83
2022/04/29 08:11:01;;;;;;;11.17;6.97;;;13.50;99.90;;;;;;4161913;28;20211;-83
2022/04/29 08:13:06;;;;;;;13.57;6.80;;;13.60;99.90;;;;;;4154302;28;20216;-83
2022/04/29 08:15:09;;;;;;;12.00;6.20;;;13.60;99.40;;;;;;4157967;28;20234;-82
2022/04/29 08:17:12;;;;;;;10.80;6.57;;;13.70;97.30;;;;;;4164138;28;20699;-82
2022/04/29 08:19:14;;;;;;;12.90;6.43;;;13.80;93.40;;;;;;4162644;28;20249;-82
2022/04/29 08:21:15;;;;;;;12.43;6.00;;;13.90;94.40;;;;;;4159212;28;20223;-82
2022/04/29 08:23:17;;;;;;;10.77;5.67;;;14.00;93.40;;;;;;4159433;28;20219;-82
2022/04/29 08:25:19;;;;;;;15.20;5.80;;;14.10;92.70;;;;;;4159434;28;20720;-82
2022/04/29 08:27:21;;;;;;;15.23;6.17;;;14.30;87.40;;;;;;4163410;28;20228;-82
2022/04/29 08:29:25;;;;;;;9.50;5.13;;;14.40;85.90;;;;;;4166991;28;20667;-81
2022/04/29 08:31:26;;;;;;;8.70;5.13;;;14.50;83.20;;;;;;4163217;28;20569;-82
2022/04/29 08:33:28;;;;;;;8.80;5.30;;;14.70;80.50;;;;;;4161811;28;20213;-83
2022/04/29 08:35:31;;;;;;;13.17;5.90;;;14.80;73.90;;;;;;4162210;28;20214;-82
2022/04/29 08:37:32;;;;;;;10.20;5.80;;;14.90;71.30;;;;;;4161323;28;20235;-83
2022/04/29 08:39:34;;;;;;;10.77;5.77;;;15.00;63.40;;;;;;4160402;28;20244;-81
2022/04/29 08:41:36;;;;;;;14.27;5.70;;;15.20;60.60;;;;;;4161028;28;20224;-82
2022/04/29 08:43:40;;;;;;;12.10;5.13;;;15.30;58.20;;;;;;4159843;28;20245;-82
2022/04/29 08:45:43;;;;;;;11.07;5.37;;;15.40;57.60;;;;;;4162707;28;20682;-83
2022/04/29 08:47:47;;;;;;;9.10;4.83;;;15.50;55.90;;;;;;4158478;28;20238;-82
2022/04/29 08:49:49;;;;;;;11.13;4.97;;;15.50;55.80;;;;;;4157283;28;20289;-82
2022/04/29 08:51:51;;;;;;;9.13;4.60;;;15.60;54.80;;;;;;4162777;28;20219;-82
2022/04/29 08:53:53;;;;;;;9.40;4.07;;;15.70;55.40;;;;;;4161341;28;20797;-82
2022/04/29 09:00:38;;;;;;;7.17;3.73;;;15.90;54.00;;;;;;4167252;28;20250;-82
2022/04/29 09:02:44;;;;;;;10.53;4.30;;;16.00;52.10;;;;;;4173815;28;20244;-81
2022/04/29 09:04:47;;;;;;;9.03;4.17;;;16.00;52.20;;;;;;4174123;28;20682;-82
2022/04/29 09:06:49;;;;;;;9.83;3.90;;;16.00;51.40;;;;;;4167788;28;20689;-82
2022/04/29 09:08:54;;;;;;;8.17;4.13;;;15.80;52.70;;;;;;4162936;28;20214;-81
2022/04/29 09:10:58;;;;;;;9.60;3.97;;;16.00;50.50;;;;;;4161926;28;20211;-82
2022/04/29 09:13:11;;;;;;;12.07;4.83;;;16.20;48.80;;;;;;4156933;28;20222;-82
2022/04/29 09:15:15;;;;;;;19.80;8.87;;;16.10;49.20;;;;;;4157023;28;20304;-81
2022/04/29 09:17:27;;;;;;;13.73;6.17;;;16.20;49.70;;;;;;4161114;28;20288;-82
2022/04/29 09:19:34;;;;;;;10.30;4.70;;;16.10;48.90;;;;;;4157045;28;20236;-81
2022/04/29 09:21:36;;;;;;;7.37;4.57;;;16.30;48.90;;;;;;4158864;28;20221;-82
2022/04/29 09:23:40;;;;;;;12.07;4.70;;;16.30;49.20;;;;;;4160740;28;20218;-83
2022/04/29 09:25:42;;;;;;;7.27;4.37;;;16.40;47.90;;;;;;4160009;28;20241;-81
2022/04/29 09:27:54;;;;;;;10.03;4.53;;;16.50;47.90;;;;;;4160281;28;20765;-81
2022/04/29 09:29:59;;;;;;;10.50;4.43;;;16.60;48.20;;;;;;4157307;28;20542;-81
2022/04/29 09:32:03;;;;;;;6.97;4.00;;;16.70;48.00;;;;;;4157235;28;20238;-82
2022/04/29 09:34:05;;;;;;;8.93;4.50;;;16.90;47.30;;;;;;4159062;28;20298;-82
2022/04/29 09:36:08;;;;;;;7.57;4.07;;;16.90;46.20;;;;;;4154829;28;20315;-82
2022/04/29 09:40:41;;;;;;;6.90;3.80;;;17.10;45.00;;;;;;4159039;28;20233;-82
2022/04/29 09:42:45;;;;;;;6.17;3.37;;;17.10;44.60;;;;;;4156983;28;20227;-81
2022/04/29 09:44:50;;;;;;;8.97;3.80;;;17.20;45.00;;;;;;4154856;28;20216;-81
2022/04/29 09:46:52;;;;;;;7.13;3.17;;;17.20;44.30;;;;;;4157672;28;20777;-81
2022/04/29 09:48:59;;;;;;;5.93;3.90;;;17.30;44.10;;;;;;4158083;28;20210;-82
2022/04/29 09:51:01;;;;;;;6.37;3.53;;;17.30;43.80;;;;;;4153851;28;20219;-82
2022/04/29 09:53:18;;;;;;;6.07;3.77;;;17.40;44.10;;;;;;4156437;28;20696;-81
2022/04/29 09:55:21;;;;;;;7.97;3.60;;;17.30;43.70;;;;;;4156911;28;20659;-81
2022/04/29 09:57:23;;;;;;;6.73;3.07;;;17.50;44.00;;;;;;4153178;28;20231;-81
2022/04/29 09:59:25;;;;;;;11.50;3.57;;;17.40;44.60;;;;;;4156088;28;20235;-82
2022/04/29 10:01:30;;;;;;;11.63;3.50;;;17.40;44.70;;;;;;4157567;28;20218;-81
2022/04/29 10:03:33;;;;;;;5.20;3.27;;;17.70;44.00;;;;;;4158332;28;20597;-81
2022/04/29 10:05:37;;;;;;;6.07;2.93;;;17.70;44.00;;;;;;4157027;28;20213;-81
2022/04/29 10:07:41;;;;;;;6.33;3.20;;;17.90;44.60;;;;;;4158831;28;20249;-81
2022/04/29 10:09:47;;;;;;;7.67;3.63;;;18.00;43.70;;;;;;4155659;28;20220;-82
2022/04/29 10:11:50;;;;;;;6.23;3.27;;;18.20;43.30;;;;;;4155248;28;20689;-81
2022/04/29 10:13:54;;;;;;;5.77;3.47;;;18.30;42.50;;;;;;4154400;28;20213;-81
2022/04/29 10:15:56;;;;;;;7.70;3.53;;;18.50;41.70;;;;;;4155186;28;20513;-81
2022/04/29 10:22:42;;;;;;;6.73;3.60;;;18.80;40.80;;;;;;4155090;28;20224;-79
2022/04/29 10:24:45;;;;;;;7.43;4.00;;;18.90;40.20;;;;;;4152208;28;20219;-81
2022/04/29 10:26:49;;;;;;;12.27;3.57;;;18.90;39.60;;;;;;4156557;28;20724;-82
2022/04/29 10:28:51;;;;;;;7.23;3.33;;;19.00;39.30;;;;;;4151380;28;20842;-84
2022/04/29 10:31:01;;;;;;;5.57;3.43;;;19.10;40.10;;;;;;4153758;28;20217;-79
2022/04/29 10:33:04;;;;;;;6.03;3.53;;;19.20;40.50;;;;;;4153773;28;20222;-79
2022/04/29 10:35:46;;;;;;;9.10;3.40;;;19.30;39.60;;;;;;4155375;28;20216;-79
2022/04/29 10:37:48;;;;;;;11.67;4.30;;;19.50;39.70;;;;;;4161142;28;20230;-78
2022/04/29 10:40:10;;;;;;;6.13;3.43;;;19.50;38.60;;;;;;4158808;28;20250;-78
2022/04/29 10:42:12;;;;;;;6.63;3.73;;;19.60;38.50;;;;;;4162501;28;20217;-78
2022/04/29 10:44:16;;;;;;;7.70;3.90;;;19.60;38.10;;;;;;4154051;28;20223;-79
2022/04/29 10:46:25;;;;;;;7.13;3.43;;;19.70;37.90;;;;;;4158207;28;20221;-81
2022/04/29 10:48:31;;;;;;;7.30;3.30;;;19.70;37.90;;;;;;4160323;28;20687;-80
2022/04/29 10:50:37;;;;;;;9.63;4.00;;;19.80;37.80;;;;;;4162882;28;20211;-81
2022/04/29 10:52:39;;;;;;;6.93;3.40;;;19.90;37.60;;;;;;4154095;28;20215;-80
2022/04/29 10:54:46;;;;;;;8.60;3.87;;;19.90;37.30;;;;;;4166133;28;20214;-81
2022/04/29 10:57:01;;;;;;;7.57;3.60;;;19.80;36.90;;;;;;4157570;28;20583;-81
2022/04/29 10:59:15;;;;;;;4.70;3.03;;;19.90;37.00;;;;;;4172880;28;20494;-81
2022/04/29 11:01:33;;;;;;;8.90;3.40;;;20.00;37.30;;;;;;4179499;28;20220;-81